Time;durP1;ratioP1;P1;durP2;ratioP2;P2;SDS_P1;SDS_P2;PMS_P1;PMS_P2;Temp;Humidity;BMP_temperature;BMP_pressure;BME280_temperature;BME280_humidity;BME280_pressure;Samples;Min_cycle;Max_cycle;Signal;HPM_P1;HPM_P2
2022/03/16 00:01:50;;;;;;;137.43;84.68;;;;;;;;;;5074438;28;20056;-72
2022/03/16 00:04:16;;;;;;;111.10;70.80;;;;;;;;;;5072917;28;20044;-72
2022/03/16 00:06:42;;;;;;;124.00;74.82;;;;;;;;;;5074281;28;20525;-72
2022/03/16 00:09:09;;;;;;;96.75;61.08;;;;;;;;;;5074312;28;20032;-72
2022/03/16 00:11:35;;;;;;;102.90;64.93;;;;;;;;;;5074278;28;20031;-72
2022/03/16 00:14:01;;;;;;;92.53;61.28;;;;;;;;;;5074134;28;20031;-72
2022/03/16 00:16:26;;;;;;;85.30;58.50;;;333.70;1638.40;;;;;;5074068;28;20017;-73
2022/03/16 00:18:52;;;;;;;92.82;63.10;;;333.70;1638.40;;;;;;5074136;28;20407;-73
2022/03/16 00:21:18;;;;;;;89.13;57.00;;;333.60;1638.40;;;;;;5074124;28;20024;-73
2022/03/16 00:23:44;;;;;;;137.73;84.60;;;;;;;;;;5072474;28;20040;-72
2022/03/16 00:26:10;;;;;;;136.65;82.75;;;;;;;;;;5074072;28;20501;-72
2022/03/16 00:28:36;;;;;;;110.65;71.07;;;358.40;1612.80;;;;;;5055895;28;20157;-72
2022/03/16 00:31:05;;;;;;;91.25;58.08;;;358.50;1612.80;;;;;;5072061;28;20060;-73
2022/03/16 00:33:31;;;;;;;58.20;38.78;;;358.40;1612.80;;;;;;5072550;28;20032;-73
2022/03/16 00:35:57;;;;;;;46.33;32.00;;;333.70;1612.80;;;;;;5072478;28;20033;-73
2022/03/16 00:38:23;;;;;;;38.20;27.27;;;333.70;1612.80;;;;;;5073790;28;20103;-73
2022/03/16 00:40:49;;;;;;;39.28;26.83;;;333.70;1587.20;;;;;;5073777;28;20075;-73
2022/03/16 00:43:15;;;;;;;33.92;22.00;;;358.40;1587.20;;;;;;5073735;28;20028;-73
2022/03/16 00:45:40;;;;;;;33.22;23.25;;;333.70;1587.20;;;;;;5073794;28;20040;-73
2022/03/16 00:48:06;;;;;;;36.13;24.17;;;333.50;1612.80;;;;;;5073587;28;20079;-72
2022/03/16 00:50:34;;;;;;;30.05;19.75;;;333.50;1612.80;;;;;;5073475;28;20028;-72
2022/03/16 00:53:01;;;;;;;28.00;19.45;;;333.50;1612.80;;;;;;5072029;28;20071;-73
2022/03/16 00:55:27;;;;;;;30.80;20.40;;;333.60;1587.20;;;;;;5073614;28;20440;-72
2022/03/16 00:57:53;;;;;;;31.30;21.02;;;;;;;;;;5073461;28;20467;-72
2022/03/16 01:00:19;;;;;;;31.25;22.60;;;;;;;;;;5073834;28;20032;-72
2022/03/16 01:02:46;;;;;;;43.40;28.77;;;;;;;;;;5073332;28;20056;-73
2022/03/16 01:05:12;;;;;;;53.00;33.20;;;;;;;;;;5073457;28;20395;-72
2022/03/16 01:07:38;;;;;;;55.15;35.70;;;;;;;;;;5072073;28;20021;-73
2022/03/16 01:10:04;;;;;;;56.40;38.67;;;;;;;;;;5073312;28;20070;-72
2022/03/16 01:12:30;;;;;;;65.15;39.92;;;;;;;;;;5072882;28;20020;-72
2022/03/16 01:14:56;;;;;;;64.55;40.28;;;333.70;1638.40;;;;;;5073225;28;20100;-73
2022/03/16 01:17:22;;;;;;;62.92;39.17;;;333.70;1638.40;;;;;;5073055;28;20443;-72
2022/03/16 01:19:48;;;;;;;64.47;39.65;;;358.40;1894.40;;;;;;5073420;28;20038;-72
2022/03/16 01:22:14;;;;;;;61.95;39.92;;;358.40;1612.80;;;;;;5073379;28;20036;-73
2022/03/16 01:24:39;;;;;;;60.10;42.13;;;358.60;1612.80;;;;;;5072855;28;20429;-73
2022/03/16 01:27:06;;;;;;;56.42;38.55;;;358.60;1612.80;;;;;;5073213;28;20036;-73
2022/03/16 01:29:32;;;;;;;63.22;40.10;;;;;;;;;;5072960;28;20033;-73
2022/03/16 01:31:59;;;;;;;62.97;40.95;;;;;;;;;;5072939;28;20020;-72
2022/03/16 01:34:25;;;;;;;61.10;39.08;;;;;;;;;;5072994;28;20027;-72
2022/03/16 01:36:51;;;;;;;80.78;45.92;;;333.20;1689.60;;;;;;5071563;28;20052;-72
2022/03/16 01:39:17;;;;;;;70.65;43.28;;;333.20;1689.60;;;;;;5072956;28;20121;-73
2022/03/16 01:41:42;;;;;;;49.08;33.05;;;333.20;1945.60;;;;;;5072895;28;20418;-72
2022/03/16 01:44:09;;;;;;;50.78;31.27;;;;;;;;;;5071515;28;20485;-72
2022/03/16 01:46:35;;;;;;;52.10;35.55;;;;;;;;;;5071649;28;20074;-73
2022/03/16 01:49:01;;;;;;;42.45;29.00;;;;;;;;;;5072782;28;20039;-72
2022/03/16 01:51:27;;;;;;;45.40;27.35;;;;;;;;;;5071529;28;20032;-72
2022/03/16 01:53:53;;;;;;;47.55;31.65;;;;;;;;;;5071670;28;20048;-72
2022/03/16 01:56:20;;;;;;;65.40;33.20;;;;;;;;;;5072800;28;20029;-72
2022/03/16 01:58:46;;;;;;;47.88;32.83;;;;;;;;;;5071372;28;20040;-72
2022/03/16 02:01:16;;;;;;;40.90;29.17;;;;;;;;;;5073122;28;20017;-72
2022/03/16 02:03:42;;;;;;;33.55;21.95;;;;;;;;;;5072645;28;20031;-72
2022/03/16 02:06:08;;;;;;;32.58;20.83;;;;;;;;;;5072656;28;20042;-72
2022/03/16 02:08:36;;;;;;;36.83;22.52;;;;;;;;;;5072603;28;20021;-72
2022/03/16 02:11:03;;;;;;;35.63;22.10;;;;;;;;;;5072638;28;20036;-72
2022/03/16 02:13:29;;;;;;;33.97;26.35;;;;;;;;;;5072708;28;20020;-72
2022/03/16 02:15:55;;;;;;;47.25;34.63;;;;;;;;;;5072385;28;20429;-72
2022/03/16 02:18:21;;;;;;;53.47;42.38;;;333.50;1664.00;;;;;;5071252;28;20073;-72
2022/03/16 02:20:50;;;;;;;32.67;22.63;;;;;;;;;;5072469;28;20112;-72
2022/03/16 02:23:16;;;;;;;52.22;38.20;;;;;;;;;;5073614;28;20059;-72
2022/03/16 02:25:51;;;;;;;66.65;45.60;;;;;;;;;;5076298;28;20041;-72
2022/03/16 02:28:18;;;;;;;46.72;31.65;;;;;;;;;;5076245;28;20542;-72
2022/03/16 02:30:44;;;;;;;50.33;34.53;;;;;;;;;;5074786;28;20372;-72
2022/03/16 02:33:11;;;;;;;43.53;28.17;;;;;;;;;;5075939;28;20024;-72
2022/03/16 02:35:37;;;;;;;51.97;37.15;;;;;;;;;;5074824;28;20031;-72
2022/03/16 02:38:03;;;;;;;48.45;29.67;;;;;;;;;;5076418;28;20020;-73
2022/03/16 02:40:30;;;;;;;43.80;30.92;;;;;;;;;;5076029;28;20026;-73
2022/03/16 02:42:56;;;;;;;53.28;32.08;;;;;;;;;;5076045;28;20033;-73
2022/03/16 02:45:22;;;;;;;55.97;33.15;;;;;;;;;;5075832;28;20564;-73
2022/03/16 02:47:48;;;;;;;79.90;29.42;;;;;;;;;;5075676;28;20028;-72
2022/03/16 02:50:19;;;;;;;62.92;27.02;;;;;;;;;;5074471;28;20153;-72
2022/03/16 02:52:46;;;;;;;46.15;23.90;;;;;;;;;;5075936;28;20025;-73
2022/03/16 02:55:13;;;;;;;42.75;25.77;;;;;;;;;;5076038;28;20028;-71
2022/03/16 02:57:39;;;;;;;60.08;28.33;;;;;;;;;;5074593;28;20020;-71
2022/03/16 03:00:06;;;;;;;44.80;28.63;;;;;;;;;;5076051;28;20058;-72
2022/03/16 03:02:32;;;;;;;49.95;25.13;;;;;;;;;;5075446;28;20498;-72
2022/03/16 03:04:58;;;;;;;42.80;24.63;;;;;;;;;;5075640;28;20105;-72
2022/03/16 03:07:24;;;;;;;34.65;22.20;;;;;;;;;;5075706;28;20027;-72
2022/03/16 03:09:50;;;;;;;36.55;24.50;;;;;;;;;;5075628;28;20056;-71
2022/03/16 03:12:16;;;;;;;38.58;23.33;;;;;;;;;;5075739;28;20100;-72
2022/03/16 03:14:43;;;;;;;42.05;25.60;;;;;;;;;;5075319;28;20105;-72
2022/03/16 03:17:09;;;;;;;46.97;28.55;;;;;;;;;;5075269;28;20166;-72
2022/03/16 03:19:35;;;;;;;56.50;31.70;;;;;;;;;;5075266;28;20060;-72
2022/03/16 03:22:02;;;;;;;56.45;37.28;;;;;;;;;;5075585;28;20063;-71
2022/03/16 03:24:28;;;;;;;42.72;22.02;;;;;;;;;;5075026;28;20040;-72
2022/03/16 03:26:54;;;;;;;40.00;25.20;;;333.60;1740.80;;;;;;5075262;28;20032;-74
2022/03/16 03:29:20;;;;;;;32.42;21.05;;;333.60;1715.20;;;;;;5075317;28;20471;-73
2022/03/16 03:31:45;;;;;;;35.17;19.58;;;333.60;1715.20;;;;;;5073905;28;20031;-73
2022/03/16 03:34:12;;;;;;;30.70;18.92;;;;;;;;;;5074710;28;20021;-72
2022/03/16 03:36:38;;;;;;;31.55;20.65;;;;;;;;;;5074927;28;20038;-72
2022/03/16 03:39:04;;;;;;;32.30;18.67;;;;;;;;;;5074851;28;20074;-72
2022/03/16 03:41:30;;;;;;;35.03;17.77;;;;;;;;;;5074909;28;20020;-72
2022/03/16 03:43:56;;;;;;;28.60;17.27;;;;;;;;;;5074922;28;20021;-72
2022/03/16 03:46:22;;;;;;;27.75;16.52;;;;;;;;;;5074599;28;20059;-72
2022/03/16 03:48:48;;;;;;;32.95;17.10;;;;;;;;;;5075211;28;20074;-72
2022/03/16 03:51:14;;;;;;;32.13;16.75;;;;;;;;;;5073388;28;20059;-72
2022/03/16 03:53:40;;;;;;;48.35;20.42;;;;;;;;;;5074730;28;20029;-72
2022/03/16 03:56:06;;;;;;;36.40;22.67;;;;;;;;;;5074558;28;20029;-72
2022/03/16 03:58:32;;;;;;;54.28;23.17;;;;;;;;;;5074967;28;20025;-72
2022/03/16 04:00:59;;;;;;;45.15;26.77;;;;;;;;;;5074253;28;20097;-72
2022/03/16 04:03:25;;;;;;;54.03;25.98;;;;;;;;;;5074309;28;20020;-72
2022/03/16 04:05:51;;;;;;;56.95;23.67;;;;;;;;;;5074320;28;20036;-72
2022/03/16 04:08:17;;;;;;;50.72;24.05;;;333.40;1766.40;;;;;;5074331;28;20475;-73
2022/03/16 04:10:43;;;;;;;85.88;30.80;;;333.40;1792.00;;;;;;5074260;28;20038;-73
2022/03/16 04:13:08;;;;;;;60.85;26.13;;;333.40;1792.00;;;;;;5074319;28;20028;-73
2022/03/16 04:15:34;;;;;;;79.70;33.55;;;333.50;1792.00;;;;;;5055845;28;20119;-72
2022/03/16 04:18:00;;;;;;;90.47;45.85;;;333.50;1792.00;;;;;;5074130;28;20021;-73
2022/03/16 04:20:26;;;;;;;109.03;55.22;;;333.40;1817.60;;;;;;5073984;28;20550;-73
2022/03/16 04:22:52;;;;;;;102.85;58.83;;;333.50;1817.60;;;;;;5074193;28;20028;-72
2022/03/16 04:25:18;;;;;;;123.60;68.85;;;;;;;;;;5073611;28;20557;-72
2022/03/16 04:27:44;;;;;;;112.30;71.35;;;;;;;;;;5074218;28;20024;-72
2022/03/16 04:30:11;;;;;;;131.52;84.28;;;;;;;;;;5073872;28;20020;-73
2022/03/16 04:32:37;;;;;;;106.85;71.35;;;;;;;;;;5073949;28;20108;-72
2022/03/16 04:35:03;;;;;;;101.43;66.22;;;;;;;;;;5073763;28;20082;-72
2022/03/16 04:37:29;;;;;;;114.53;69.65;;;;;;;;;;5073655;28;20044;-72
2022/03/16 04:39:55;;;;;;;113.18;67.53;;;;;;;;;;5073784;28;20058;-72
2022/03/16 04:42:22;;;;;;;115.32;67.90;;;;;;;;;;5073891;28;20489;-72
2022/03/16 04:44:48;;;;;;;110.70;66.47;;;;;;;;;;5072108;28;20033;-72
2022/03/16 04:47:14;;;;;;;95.05;63.63;;;;;;;;;;5072802;28;20028;-72
2022/03/16 04:49:40;;;;;;;106.65;65.13;;;;;;;;;;5073484;28;20024;-72
2022/03/16 04:52:06;;;;;;;103.72;64.07;;;;;;;;;;5073563;28;20063;-72
2022/03/16 04:54:32;;;;;;;98.13;60.60;;;333.30;1894.40;;;;;;5073576;28;20033;-72
2022/03/16 04:56:57;;;;;;;118.45;68.30;;;333.50;1894.40;;;;;;5073516;28;20505;-73
2022/03/16 04:59:23;;;;;;;96.10;63.22;;;333.30;1971.20;;;;;;5073376;28;20078;-73
2022/03/16 05:01:49;;;;;;;101.45;63.08;;;333.30;1971.20;;;;;;5073251;28;20108;-72
2022/03/16 05:04:15;;;;;;;101.03;63.55;;;;;;;;;;5071900;28;20040;-73
2022/03/16 05:06:41;;;;;;;100.28;65.80;;;;;;;;;;5073142;28;20060;-72
2022/03/16 05:09:07;;;;;;;113.75;76.10;;;333.60;1996.80;;;;;;5073351;28;20070;-73
2022/03/16 05:11:34;;;;;;;123.65;80.93;;;333.50;1996.80;;;;;;5073179;28;20017;-72
2022/03/16 05:14:00;;;;;;;111.75;77.18;;;;;;;;;;5071977;28;20024;-73
2022/03/16 05:16:26;;;;;;;126.82;81.47;;;;;;;;;;5073121;28;20051;-72
2022/03/16 05:18:52;;;;;;;134.93;81.85;;;;;;;;;;5073190;28;20020;-72
2022/03/16 05:21:18;;;;;;;125.85;81.82;;;;;;;;;;5072929;28;20032;-72
2022/03/16 05:23:44;;;;;;;126.32;78.13;;;;;;;;;;5072936;28;20117;-72
2022/03/16 05:26:10;;;;;;;120.63;73.45;;;;;;;;;;5072919;28;20045;-72
2022/03/16 05:28:36;;;;;;;141.43;94.78;;;;;;;;;;5071683;28;20099;-72
2022/03/16 05:31:03;;;;;;;155.70;98.18;;;;;;;;;;5073112;28;20024;-73
2022/03/16 05:33:29;;;;;;;123.95;77.78;;;;;;;;;;5072991;28;20017;-72
2022/03/16 05:35:55;;;;;;;139.77;88.97;;;;;;;;;;5072817;28;20057;-72
2022/03/16 05:38:21;;;;;;;138.40;90.05;;;;;;;;;;5072850;28;20049;-73
2022/03/16 05:40:48;;;;;;;146.55;96.18;;;;;;;;;;5072996;28;20099;-73
2022/03/16 05:43:14;;;;;;;201.57;131.25;;;;;;;;;;5072841;28;20024;-73
2022/03/16 05:45:40;;;;;;;144.68;93.30;;;;;;;;;;5072615;28;20037;-73
2022/03/16 05:48:06;;;;;;;164.68;111.32;;;;;;;;;;5072808;28;20024;-72
2022/03/16 05:50:32;;;;;;;136.40;84.35;;;;;;;;;;5072751;28;20057;-72
2022/03/16 05:52:59;;;;;;;130.02;85.20;;;;;;;;;;5072630;28;20487;-72
2022/03/16 05:55:25;;;;;;;143.40;89.00;;;;;;;;;;5072801;28;20040;-73
2022/03/16 05:57:51;;;;;;;143.63;85.07;;;;;;;;;;5075443;28;20319;-73
2022/03/16 06:00:18;;;;;;;133.35;83.13;;;;;;;;;;5076637;28;20020;-72
2022/03/16 06:02:45;;;;;;;131.82;87.15;;;;;;;;;;5077046;28;20028;-72
2022/03/16 06:05:11;;;;;;;156.52;104.10;;;;;;;;;;5076575;28;20029;-72
2022/03/16 06:07:40;;;;;;;165.45;104.65;;;333.50;2201.60;;;;;;5076408;28;20047;-73
2022/03/16 06:10:07;;;;;;;150.98;97.05;;;;;;;;;;5076630;28;20047;-73
2022/03/16 06:12:33;;;;;;;137.25;96.15;;;;;;;;;;5076589;28;20021;-73
2022/03/16 06:14:59;;;;;;;162.63;102.35;;;;;;;;;;5076550;28;20032;-73
2022/03/16 06:17:25;;;;;;;152.75;100.22;;;;;;;;;;5076376;28;20082;-73
2022/03/16 06:19:51;;;;;;;145.63;96.82;;;;;;;;;;5076227;28;20108;-72
2022/03/16 06:22:17;;;;;;;166.13;115.13;;;;;;;;;;5076180;28;20059;-73
2022/03/16 06:24:43;;;;;;;197.77;127.05;;;;;;;;;;5076113;28;20060;-73
2022/03/16 06:27:10;;;;;;;237.20;151.80;;;;;;;;;;5076404;28;20020;-73
2022/03/16 06:29:35;;;;;;;251.75;167.15;;;333.70;2099.20;;;;;;5076175;28;20387;-73
2022/03/16 06:32:01;;;;;;;249.65;178.88;;;333.70;2124.80;;;;;;5076100;28;20027;-73
2022/03/16 06:34:27;;;;;;;262.25;181.90;;;358.60;2099.20;;;;;;5074759;28;20043;-73
2022/03/16 06:36:52;;;;;;;320.75;212.57;;;358.60;2124.80;;;;;;5075706;28;20039;-73
2022/03/16 06:39:18;;;;;;;333.48;219.07;;;358.80;2073.60;;;;;;5074572;28;20036;-73
2022/03/16 06:41:44;;;;;;;347.77;232.07;;;358.80;2099.20;;;;;;5075908;28;20075;-72
2022/03/16 06:44:10;;;;;;;301.33;198.38;;;;;;;;;;5074360;28;20037;-73
2022/03/16 06:46:37;;;;;;;268.75;188.63;;;;;;;;;;5075537;28;20028;-73
2022/03/16 06:49:04;;;;;;;257.05;165.15;;;;;;;;;;5075724;28;20016;-72
2022/03/16 06:51:30;;;;;;;216.50;141.27;;;;;;;;;;5075973;28;20021;-73
2022/03/16 06:53:56;;;;;;;193.65;133.43;;;;;;;;;;5075732;28;20032;-73
2022/03/16 06:56:22;;;;;;;159.32;110.28;;;;;;;;;;5075490;28;20033;-73
2022/03/16 06:58:49;;;;;;;118.55;79.60;;;;;;;;;;5075639;28;20024;-73
2022/03/16 07:01:15;;;;;;;106.90;72.75;;;;;;;;;;5074235;28;20036;-73
2022/03/16 07:03:43;;;;;;;162.73;103.70;;;;;;;;;;5075482;28;20027;-73
2022/03/16 07:06:10;;;;;;;167.50;102.32;;;;;;;;;;5073959;28;20127;-73
2022/03/16 07:08:37;;;;;;;172.50;99.72;;;;;;;;;;5074544;28;20429;-73
2022/03/16 07:11:03;;;;;;;142.25;94.68;;;;;;;;;;5075347;28;20141;-73
2022/03/16 07:13:29;;;;;;;140.45;92.97;;;384.40;1945.60;;;;;;5075282;28;20020;-73
2022/03/16 07:15:54;;;;;;;169.98;101.63;;;384.50;1920.00;;;;;;5075273;28;20441;-73
2022/03/16 07:18:23;;;;;;;170.50;98.05;;;384.50;1945.60;;;;;;5073743;28;20029;-73
2022/03/16 07:20:49;;;;;;;165.73;104.03;;;;;;;;;;5075235;28;20486;-72
2022/03/16 07:23:17;;;;;;;198.40;113.38;;;;;;;;;;5074861;28;20063;-72
2022/03/16 07:25:45;;;;;;;199.07;114.88;;;;;;;;;;5075020;28;20038;-72
2022/03/16 07:28:11;;;;;;;183.77;117.28;;;;;;;;;;5073742;28;20495;-73
2022/03/16 07:30:38;;;;;;;147.82;99.15;;;;;;;;;;5074976;28;20039;-73
2022/03/16 07:33:04;;;;;;;158.45;107.05;;;;;;;;;;5074808;28;20021;-73
2022/03/16 07:35:31;;;;;;;142.65;95.22;;;;;;;;;;5073712;28;20036;-72
2022/03/16 07:37:58;;;;;;;222.32;146.40;;;;;;;;;;5074710;28;20071;-72
2022/03/16 07:40:25;;;;;;;150.40;93.20;;;410.00;1843.20;;;;;;5075079;28;20415;-73
2022/03/16 07:42:51;;;;;;;131.30;79.47;;;410.10;1817.60;;;;;;5074706;28;20016;-72
2022/03/16 07:45:18;;;;;;;118.82;75.65;;;410.20;1817.60;;;;;;5074624;28;20032;-72
2022/03/16 07:47:48;;;;;;;149.88;84.75;;;410.20;1817.60;;;;;;5074686;28;20021;-72
2022/03/16 07:50:15;;;;;;;129.95;67.70;;;410.40;1792.00;;;;;;5074734;28;20016;-72
2022/03/16 07:52:42;;;;;;;114.68;66.75;;;;;;;;;;5074488;28;20099;-72
2022/03/16 07:55:09;;;;;;;149.75;81.25;;;435.20;1766.40;;;;;;5074798;28;20368;-73
2022/03/16 07:57:38;;;;;;;108.50;66.47;;;435.40;1766.40;;;;;;5074489;28;20077;-73
2022/03/16 08:00:05;;;;;;;96.20;60.95;;;435.40;1740.80;;;;;;5074391;28;20078;-73
2022/03/16 08:02:31;;;;;;;83.07;56.75;;;;;;;;;;5074248;28;20379;-73
2022/03/16 08:05:00;;;;;;;95.43;59.78;;;;;;;;;;5072932;28;20111;-73
2022/03/16 08:07:29;;;;;;;103.57;55.72;;;;;;;;;;5074107;28;20025;-72
2022/03/16 08:09:56;;;;;;;129.23;80.18;;;;;;;;;;5074405;28;20273;-73
2022/03/16 08:12:22;;;;;;;93.88;46.83;;;;;;;;;;5074144;28;20017;-72
2022/03/16 08:14:48;;;;;;;93.18;46.92;;;;;;;;;;5074639;28;20344;-71
2022/03/16 08:17:14;;;;;;;61.25;34.25;;;;;;;;;;5073947;28;20067;-72
2022/03/16 08:19:40;;;;;;;71.55;36.08;;;;;;;;;;5073949;28;20100;-72
2022/03/16 08:22:06;;;;;;;68.90;34.28;;;;;;;;;;5073751;28;20032;-72
2022/03/16 08:24:33;;;;;;;93.75;41.70;;;;;;;;;;5072213;28;20037;-72
2022/03/16 08:26:59;;;;;;;91.25;42.85;;;;;;;;;;5073959;28;20024;-72
2022/03/16 08:29:25;;;;;;;83.07;46.95;;;;;;;;;;5073893;28;20017;-72
2022/03/16 08:31:51;;;;;;;61.78;37.08;;;;;;;;;;5073667;28;20499;-72
2022/03/16 08:34:18;;;;;;;76.18;44.53;;;;;;;;;;5072478;28;20047;-72
2022/03/16 08:36:44;;;;;;;51.97;26.67;;;;;;;;;;5073625;28;20051;-72
2022/03/16 08:39:11;;;;;;;56.30;29.35;;;;;;;;;;5072197;28;20108;-72
2022/03/16 08:41:37;;;;;;;45.83;24.10;;;;;;;;;;5073467;28;20043;-72
2022/03/16 08:44:03;;;;;;;51.10;22.83;;;;;;;;;;5073495;28;20469;-72
2022/03/16 09:38:27;;;;;;;46.10;15.70;;;;;;;;;;5131139;27;20440;-65
2022/03/16 09:40:56;;;;;;;37.60;17.15;;;;;;;;;;5131109;28;20027;-67
2022/03/16 09:43:25;;;;;;;27.55;14.35;;;;;;;;;;5130975;27;20094;-64
2022/03/16 09:45:51;;;;;;;27.83;14.73;;;;;;;;;;5130820;28;20034;-65
2022/03/16 09:48:18;;;;;;;23.52;12.48;;;;;;;;;;5130698;28;20066;-66
2022/03/16 09:50:44;;;;;;;30.17;16.55;;;486.50;1049.60;;;;;;5130803;28;20015;-65
2022/03/16 09:53:11;;;;;;;21.60;14.38;;;486.50;1075.20;;;;;;5130664;27;20019;-65
2022/03/16 09:55:37;;;;;;;35.42;16.27;;;486.50;1075.20;;;;;;5130861;27;20024;-65
2022/03/16 09:58:04;;;;;;;35.45;14.07;;;486.60;1075.20;;;;;;5130720;27;20038;-65
2022/03/16 10:00:30;;;;;;;32.35;16.58;;;486.60;1075.20;;;;;;5130368;27;20473;-65
2022/03/16 10:03:00;;;;;;;21.50;13.27;;;486.60;1075.20;;;;;;5130631;27;20034;-66
2022/03/16 10:05:27;;;;;;;25.23;11.73;;;486.60;1075.20;;;;;;5130666;27;20024;-65
2022/03/16 10:07:53;;;;;;;34.80;13.68;;;486.70;1075.20;;;;;;5130597;28;20031;-65
2022/03/16 10:13:24;;;;;;;30.20;12.55;;;486.70;1049.60;;;;;;5130376;28;20103;-66
2022/03/16 10:15:51;;;;;;;39.35;12.00;;;486.70;1049.60;;;;;;5130567;27;20039;-65
2022/03/16 10:18:20;;;;;;;34.95;11.30;;;486.60;1075.20;;;;;;5130293;27;20485;-66
2022/03/16 10:20:47;;;;;;;21.88;10.23;;;486.60;1075.20;;;;;;5130278;27;20177;-65
2022/03/16 10:23:20;;;;;;;32.40;13.90;;;486.60;1049.60;;;;;;5130263;27;20046;-66
2022/03/16 10:25:51;;;;;;;17.90;9.13;;;486.60;1075.20;;;;;;5128517;28;20023;-64
2022/03/16 10:28:27;;;;;;;66.07;30.63;;;486.60;1049.60;;;;;;5129933;27;20551;-66
2022/03/16 10:30:54;;;;;;;48.80;17.77;;;486.70;1075.20;;;;;;5130183;27;20038;-65
2022/03/16 10:33:20;;;;;;;35.65;15.02;;;486.70;1075.20;;;;;;5130327;27;20114;-65
2022/03/16 10:35:56;;;;;;;33.00;17.63;;;486.70;1075.20;;;;;;5130203;27;20111;-65
2022/03/16 10:38:23;;;;;;;33.05;13.52;;;486.70;1075.20;;;;;;5101315;28;20087;-65
2022/03/16 10:40:49;;;;;;;36.40;15.73;;;486.60;1075.20;;;;;;5095733;28;20028;-66
2022/03/16 10:49:02;;;;;;;23.23;10.63;;;486.50;1075.20;;;;;;5096110;28;20119;-65
2022/03/16 10:51:29;;;;;;;28.77;11.38;;;486.50;1075.20;;;;;;5094251;28;20020;-65
2022/03/16 10:53:56;;;;;;;27.17;14.30;;;486.50;1075.20;;;;;;5095725;28;20103;-65
2022/03/16 10:56:23;;;;;;;34.38;13.65;;;486.60;1075.20;;;;;;5095707;28;20020;-65
2022/03/16 10:58:52;;;;;;;35.45;14.40;;;486.50;1075.20;;;;;;5095444;28;20428;-65
2022/03/16 11:01:19;;;;;;;38.58;16.20;;;486.50;1075.20;;;;;;5095369;28;20097;-65
2022/03/16 11:03:47;;;;;;;53.35;19.65;;;;;;;;;;5095183;28;20031;-65
2022/03/16 11:06:14;;;;;;;37.63;17.80;;;;;;;;;;5095234;28;20033;-66
2022/03/16 11:08:41;;;;;;;32.97;17.05;;;;;;;;;;5095012;28;20035;-65
2022/03/16 11:13:53;;;;;;;38.28;19.15;;;;;;;;;;5095459;28;20039;-65
2022/03/16 11:16:20;;;;;;;29.35;17.83;;;;;;;;;;5095354;28;20106;-67
2022/03/16 11:18:50;;;;;;;53.60;26.52;;;;;;;;;;5095081;28;20470;-65
2022/03/16 11:21:21;;;;;;;38.72;20.67;;;;;;;;;;5095274;28;20028;-65
2022/03/16 11:26:51;;;;;;;47.20;20.27;;;;;;;;;;5095308;28;20039;-66
2022/03/16 11:29:38;;;;;;;33.40;17.13;;;;;;;;;;5094929;28;20036;-65
2022/03/16 11:32:11;;;;;;;58.85;22.00;;;;;;;;;;5095020;28;20115;-66
2022/03/16 11:34:37;;;;;;;50.40;25.02;;;;;;;;;;5094737;28;20059;-66
2022/03/16 11:37:05;;;;;;;59.33;24.10;;;;;;;;;;5094308;28;20047;-65
2022/03/16 11:39:45;;;;;;;37.15;23.15;;;;;;;;;;5094676;28;20016;-66
2022/03/16 11:42:12;;;;;;;35.17;19.00;;;;;;;;;;5094754;28;20024;-66
2022/03/16 11:44:39;;;;;;;37.28;19.83;;;;;;;;;;5094567;28;20363;-66
2022/03/16 11:47:11;;;;;;;47.40;21.70;;;;;;;;;;5094506;28;20039;-66
2022/03/16 11:49:39;;;;;;;32.30;16.15;;;;;;;;;;5092000;28;20032;-66
2022/03/16 11:52:05;;;;;;;53.33;22.63;;;;;;;;;;5094704;28;20028;-66
2022/03/16 11:54:48;;;;;;;30.58;17.73;;;;;;;;;;5094355;28;20024;-66
2022/03/16 11:57:15;;;;;;;41.22;17.75;;;;;;;;;;5094332;28;20020;-66
2022/03/16 11:59:46;;;;;;;25.40;15.57;;;;;;;;;;5094219;28;20047;-65
2022/03/16 12:02:13;;;;;;;63.95;39.45;;;;;;;;;;5094131;28;20027;-65
2022/03/16 12:04:42;;;;;;;115.30;68.35;;;;;;;;;;5094271;28;20042;-65
2022/03/16 12:07:12;;;;;;;42.42;23.60;;;;;;;;;;5094052;28;20044;-65
2022/03/16 12:09:45;;;;;;;40.73;26.60;;;;;;;;;;5094207;28;20028;-66
2022/03/16 12:15:09;;;;;;;27.65;16.30;;;;;;;;;;5094328;28;20446;-65
2022/03/16 12:17:37;;;;;;;31.75;15.70;;;;;;;;;;5094080;28;20042;-65
2022/03/16 12:20:10;;;;;;;34.63;15.45;;;;;;;;;;5094302;28;20020;-66
2022/03/16 12:22:44;;;;;;;32.15;16.50;;;;;;;;;;5093933;28;20024;-66
2022/03/16 12:25:29;;;;;;;31.45;17.60;;;;;;;;;;5093767;28;20070;-66
2022/03/16 12:30:52;;;;;;;28.40;15.48;;;;;;;;;;5093807;28;20032;-65
2022/03/16 12:33:22;;;;;;;23.65;15.63;;;;;;;;;;5093555;28;20134;-65
2022/03/16 12:35:49;;;;;;;30.08;16.02;;;;;;;;;;5093506;28;20030;-65
2022/03/16 12:38:15;;;;;;;29.92;18.23;;;;;;;;;;5093281;28;20052;-66
2022/03/16 12:42:31;;;;;;;30.48;17.23;;;;;;;;;;5093478;28;20028;-66
2022/03/16 12:43:28;;;;;;;49.67;23.00;;;;;;;;;;5093642;28;20036;-67
2022/03/16 12:46:09;;;;;;;58.75;25.70;;;;;;;;;;5093228;28;20028;-65
2022/03/16 12:48:36;;;;;;;29.88;17.63;;;;;;;;;;5093325;28;20064;-66
2022/03/16 12:51:02;;;;;;;57.72;20.08;;;435.80;1536.00;;;;;;5093512;28;20107;-66
2022/03/16 12:53:44;;;;;;;46.78;17.50;;;435.50;1536.00;;;;;;5093546;28;20093;-67
2022/03/16 12:56:19;;;;;;;29.63;16.77;;;;;;;;;;5093184;28;20090;-66
2022/03/16 12:58:55;;;;;;;41.67;17.58;;;;;;;;;;5092924;28;20119;-66
2022/03/16 13:01:21;;;;;;;31.92;19.10;;;;;;;;;;5092802;28;20032;-66
2022/03/16 13:03:49;;;;;;;41.60;23.23;;;;;;;;;;5093545;28;20436;-66
2022/03/16 13:06:19;;;;;;;73.57;39.20;;;435.50;1664.00;;;;;;5092900;28;20032;-68
2022/03/16 13:08:52;;;;;;;58.10;36.17;;;435.40;1689.60;;;;;;5092960;28;20092;-67
2022/03/16 13:11:24;;;;;;;41.00;26.92;;;;;;;;;;5093429;28;20020;-66
2022/03/16 13:14:14;;;;;;;53.58;33.55;;;435.60;1817.60;;;;;;5092708;28;20032;-66
2022/03/16 13:16:42;;;;;;;49.65;34.17;;;435.50;1792.00;;;;;;5092882;28;20038;-64
2022/03/16 13:19:23;;;;;;;47.08;33.70;;;435.50;1868.80;;;;;;5092718;28;20058;-64
2022/03/16 13:21:48;;;;;;;51.83;36.95;;;435.40;1894.40;;;;;;5092722;28;20386;-65
2022/03/16 13:24:14;;;;;;;57.97;37.08;;;435.30;1920.00;;;;;;5092736;28;20020;-65
2022/03/16 13:26:40;;;;;;;29.65;22.67;;;435.30;1945.60;;;;;;5093008;28;20040;-68
2022/03/16 13:29:09;;;;;;;27.70;19.90;;;435.20;1971.20;;;;;;5092582;28;20444;-66
2022/03/16 13:31:40;;;;;;;26.13;15.52;;;410.50;1996.80;;;;;;5091506;28;20026;-65
2022/03/16 13:34:08;;;;;;;25.77;18.02;;;;;;;;;;5092727;28;20035;-64
2022/03/16 13:36:36;;;;;;;30.15;22.15;;;;;;;;;;5092411;28;20379;-65
2022/03/16 13:39:15;;;;;;;38.83;34.35;;;;;;;;;;5092680;28;20024;-69
2022/03/16 13:42:11;;;;;;;35.05;29.33;;;;;;;;;;5092623;28;20028;-65
2022/03/16 13:44:40;;;;;;;25.92;22.25;;;;;;;;;;5092390;28;20023;-66
2022/03/16 13:47:07;;;;;;;24.90;18.73;;;;;;;;;;5092554;28;20380;-66
2022/03/16 13:49:35;;;;;;;29.98;21.83;;;;;;;;;;5092402;28;20024;-65
2022/03/16 13:52:03;;;;;;;29.67;21.55;;;;;;;;;;5092792;28;20076;-65
2022/03/16 13:54:29;;;;;;;24.10;21.38;;;;;;;;;;5092421;28;20059;-65
2022/03/16 13:56:55;;;;;;;27.73;23.02;;;;;;;;;;5092725;28;20451;-65
2022/03/16 13:59:22;;;;;;;34.45;25.02;;;;;;;;;;5092342;28;20024;-68
2022/03/16 14:01:48;;;;;;;34.22;24.25;;;;;;;;;;5091007;28;20077;-65
2022/03/16 14:04:18;;;;;;;42.85;31.67;;;435.40;2073.60;;;;;;5092196;28;20367;-64
2022/03/16 14:06:47;;;;;;;30.40;23.47;;;435.30;2073.60;;;;;;5092663;28;20489;-65
2022/03/16 14:09:21;;;;;;;36.33;24.55;;;435.30;2124.80;;;;;;5092524;28;20865;-67
2022/03/16 14:11:47;;;;;;;63.22;43.63;;;435.30;2073.60;;;;;;5092452;28;20052;-65
2022/03/16 14:14:15;;;;;;;55.38;38.38;;;435.20;2099.20;;;;;;5095126;28;20024;-65
2022/03/16 14:16:44;;;;;;;50.78;33.58;;;435.20;2073.60;;;;;;5096049;28;20058;-64
2022/03/16 14:19:36;;;;;;;30.80;21.60;;;435.20;2099.20;;;;;;5096384;28;20489;-66
2022/03/16 14:22:04;;;;;;;26.88;18.45;;;410.50;2099.20;;;;;;5033779;28;20599;-65
2022/03/16 14:24:30;;;;;;;38.45;27.45;;;;;;;;;;5033759;28;20049;-65
2022/03/16 14:27:15;;;;;;;37.22;26.58;;;;;;;;;;5033594;28;20041;-64
2022/03/16 14:29:42;;;;;;;24.30;18.63;;;;;;;;;;5033518;28;20096;-64
2022/03/16 14:32:08;;;;;;;37.72;28.48;;;;;;;;;;5033583;28;20033;-65
2022/03/16 14:34:34;;;;;;;40.45;31.15;;;;;;;;;;5033367;28;20029;-66
2022/03/16 14:37:00;;;;;;;43.85;34.67;;;;;;;;;;5032958;28;20089;-64